Time;durP1;ratioP1;P1;durP2;ratioP2;P2;SDS_P1;SDS_P2;PMS_P1;PMS_P2;Temp;Humidity;BMP_temperature;BMP_pressure;BME280_temperature;BME280_humidity;BME280_pressure;Samples;Min_cycle;Max_cycle;Signal;HPM_P1;HPM_P2
2021/01/06 00:02:22;;;;;;;26.47;13.37;;;3.30;99.90;;;;;;5052873;28;20226;-65
2021/01/06 00:04:48;;;;;;;29.80;14.73;;;3.30;99.90;;;;;;5053375;28;20186;-65
2021/01/06 00:07:13;;;;;;;28.03;14.80;;;3.30;99.90;;;;;;5052613;28;20182;-65
2021/01/06 00:09:39;;;;;;;26.73;15.07;;;3.30;99.90;;;;;;5052033;28;20185;-65
2021/01/06 00:12:06;;;;;;;26.07;13.83;;;3.40;99.90;;;;;;5052730;28;20221;-64
2021/01/06 00:14:32;;;;;;;29.70;13.67;;;3.40;99.90;;;;;;5051564;28;20535;-65
2021/01/06 00:16:58;;;;;;;31.70;14.83;;;3.40;99.90;;;;;;5053009;28;20224;-65
2021/01/06 00:19:23;;;;;;;29.23;15.67;;;3.40;99.90;;;;;;5052684;28;20666;-65
2021/01/06 00:21:50;;;;;;;36.80;15.70;;;3.40;99.90;;;;;;5052653;28;20183;-64
2021/01/06 00:24:16;;;;;;;33.07;16.20;;;3.40;99.90;;;;;;5052212;28;20167;-67
2021/01/06 00:26:41;;;;;;;33.47;15.30;;;3.40;99.90;;;;;;5052803;28;20216;-66
2021/01/06 00:29:12;;;;;;;37.97;15.90;;;3.50;99.90;;;;;;5052646;28;20179;-64
2021/01/06 00:31:42;;;;;;;31.10;16.47;;;3.50;99.90;;;;;;5052406;28;20194;-65
2021/01/06 00:34:08;;;;;;;33.63;15.60;;;3.60;99.90;;;;;;5052489;28;20179;-65
2021/01/06 00:36:34;;;;;;;33.57;16.37;;;3.50;99.90;;;;;;5052515;28;20229;-65
2021/01/06 00:39:00;;;;;;;31.93;16.33;;;3.50;99.90;;;;;;5052317;28;20579;-65
2021/01/06 00:41:29;;;;;;;31.00;16.63;;;3.60;99.90;;;;;;5052207;28;20194;-65
2021/01/06 00:43:56;;;;;;;37.43;17.40;;;3.50;99.90;;;;;;5052454;28;20548;-64
2021/01/06 00:46:27;;;;;;;36.33;17.77;;;3.60;99.90;;;;;;5052121;28;20179;-65
2021/01/06 00:48:52;;;;;;;38.20;18.67;;;3.70;99.90;;;;;;5052303;28;20266;-65
2021/01/06 00:51:18;;;;;;;38.23;16.30;;;3.70;99.90;;;;;;5051924;28;20261;-66
2021/01/06 00:53:44;;;;;;;39.33;16.23;;;3.70;99.90;;;;;;5051994;28;20232;-65
2021/01/06 00:56:09;;;;;;;36.53;17.00;;;3.70;99.90;;;;;;5052210;28;20297;-65
2021/01/06 00:58:35;;;;;;;29.93;17.13;;;3.70;99.90;;;;;;5052053;28;20178;-65
2021/01/06 01:01:01;;;;;;;35.20;17.40;;;3.70;99.90;;;;;;5052090;28;20189;-65
2021/01/06 01:03:26;;;;;;;31.27;15.67;;;3.60;99.90;;;;;;5051750;28;20218;-66
2021/01/06 01:05:52;;;;;;;35.60;16.80;;;3.70;99.90;;;;;;5052198;28;20270;-65
2021/01/06 01:08:17;;;;;;;31.03;16.37;;;3.70;99.90;;;;;;5051036;28;20187;-66
2021/01/06 01:10:48;;;;;;;31.97;16.13;;;3.70;99.90;;;;;;5051842;28;20693;-65
2021/01/06 01:13:25;;;;;;;30.87;15.43;;;3.70;99.90;;;;;;5051498;28;20210;-65
2021/01/06 01:15:56;;;;;;;32.43;15.37;;;3.70;99.90;;;;;;5051968;28;20209;-65
2021/01/06 01:18:27;;;;;;;36.50;16.17;;;3.70;99.90;;;;;;5050128;28;20224;-65
2021/01/06 01:20:56;;;;;;;30.43;15.47;;;3.70;99.90;;;;;;5051850;28;20171;-66
2021/01/06 01:23:24;;;;;;;27.93;14.37;;;3.70;99.90;;;;;;5051414;28;20209;-65
2021/01/06 01:25:50;;;;;;;30.47;15.70;;;3.60;99.90;;;;;;5051846;28;20643;-65
2021/01/06 01:28:17;;;;;;;29.57;15.57;;;3.70;99.90;;;;;;5051453;28;20183;-65
2021/01/06 01:30:43;;;;;;;29.90;15.23;;;3.70;99.90;;;;;;5051576;28;20601;-65
2021/01/06 01:33:09;;;;;;;34.03;16.33;;;3.80;99.90;;;;;;5051429;28;20254;-65
2021/01/06 01:35:35;;;;;;;35.93;16.17;;;3.70;99.90;;;;;;5051732;28;20233;-65
2021/01/06 01:38:03;;;;;;;29.03;14.47;;;3.70;99.90;;;;;;5051374;28;20193;-64
2021/01/06 01:40:29;;;;;;;30.37;14.60;;;3.80;99.90;;;;;;5050725;28;20336;-65
2021/01/06 01:43:04;;;;;;;32.00;15.53;;;3.70;99.90;;;;;;5051589;28;20708;-64
2021/01/06 01:46:01;;;;;;;28.40;14.70;;;3.70;99.90;;;;;;5051396;28;20190;-65
2021/01/06 01:48:37;;;;;;;28.67;14.47;;;3.60;99.90;;;;;;5051096;28;20183;-64
2021/01/06 01:51:30;;;;;;;28.33;15.37;;;3.60;99.90;;;;;;5050972;28;20206;-65
2021/01/06 01:54:04;;;;;;;33.73;15.37;;;3.70;99.90;;;;;;5051457;28;20189;-65
2021/01/06 01:56:36;;;;;;;27.97;15.43;;;3.70;99.90;;;;;;5051355;28;20189;-65
2021/01/06 01:59:04;;;;;;;27.10;14.77;;;3.70;99.90;;;;;;5051545;28;20235;-64
2021/01/06 02:01:30;;;;;;;31.57;15.17;;;3.70;99.90;;;;;;5050741;28;20195;-64
2021/01/06 02:04:26;;;;;;;27.40;14.93;;;3.70;99.90;;;;;;5051441;28;20174;-65
2021/01/06 02:07:16;;;;;;;27.13;13.90;;;3.70;99.90;;;;;;5038876;28;20183;-65
2021/01/06 02:09:55;;;;;;;29.30;14.93;;;3.70;99.90;;;;;;5049154;28;20198;-65
2021/01/06 02:12:29;;;;;;;29.97;14.87;;;3.70;99.90;;;;;;5054798;28;20190;-65
2021/01/06 02:15:03;;;;;;;25.67;15.57;;;3.70;99.90;;;;;;5055195;28;20564;-65
2021/01/06 02:17:29;;;;;;;29.17;16.13;;;3.70;99.90;;;;;;5055308;28;20170;-65
2021/01/06 02:19:54;;;;;;;29.80;13.17;;;3.80;99.90;;;;;;5054793;28;20589;-65
2021/01/06 02:22:21;;;;;;;28.60;14.33;;;3.80;99.90;;;;;;5054885;28;20202;-65
2021/01/06 02:24:50;;;;;;;25.40;14.50;;;3.80;99.90;;;;;;5054940;28;20175;-65
2021/01/06 02:27:17;;;;;;;27.97;14.57;;;3.90;99.90;;;;;;5055119;28;20185;-65
2021/01/06 02:29:43;;;;;;;25.20;13.93;;;4.00;99.90;;;;;;5054766;28;20170;-65
2021/01/06 02:32:09;;;;;;;23.43;14.80;;;3.90;99.90;;;;;;5054932;28;20667;-65
2021/01/06 02:34:38;;;;;;;25.77;13.93;;;3.90;99.90;;;;;;5054537;28;20226;-65
2021/01/06 02:37:05;;;;;;;27.20;14.83;;;3.90;99.90;;;;;;5055135;28;20175;-65
2021/01/06 02:39:31;;;;;;;24.97;13.73;;;4.00;99.90;;;;;;5054592;28;20174;-64
2021/01/06 02:41:57;;;;;;;22.33;12.40;;;4.00;99.90;;;;;;5054549;28;20230;-64
2021/01/06 02:44:22;;;;;;;24.83;13.43;;;3.90;99.90;;;;;;5054584;28;20221;-64
2021/01/06 02:46:50;;;;;;;22.87;14.60;;;4.00;99.90;;;;;;5054887;28;20197;-65
2021/01/06 02:49:16;;;;;;;29.17;14.03;;;4.00;99.90;;;;;;5054792;28;20171;-65
2021/01/06 02:51:46;;;;;;;25.27;13.97;;;4.00;99.90;;;;;;5053868;28;20264;-65
2021/01/06 02:54:22;;;;;;;24.03;13.93;;;4.00;99.90;;;;;;5054618;28;20185;-65
2021/01/06 02:56:52;;;;;;;25.73;13.90;;;4.00;99.90;;;;;;5054461;28;20179;-64
2021/01/06 02:59:21;;;;;;;22.93;13.53;;;4.00;99.90;;;;;;5054469;28;20178;-64
2021/01/06 03:01:48;;;;;;;21.37;12.67;;;4.00;99.90;;;;;;5053860;28;20191;-65
2021/01/06 03:04:17;;;;;;;22.57;13.37;;;4.00;99.90;;;;;;5054373;28;20201;-65
2021/01/06 03:06:56;;;;;;;25.90;13.13;;;4.00;99.90;;;;;;5054042;28;20179;-65
2021/01/06 03:09:27;;;;;;;21.23;12.97;;;4.00;99.90;;;;;;5053592;28;20629;-65
2021/01/06 03:11:55;;;;;;;22.67;12.53;;;4.00;99.90;;;;;;5053873;28;20213;-65
2021/01/06 03:14:22;;;;;;;27.37;13.50;;;4.10;99.90;;;;;;5052785;28;20223;-65
2021/01/06 03:16:48;;;;;;;21.33;12.40;;;4.10;99.90;;;;;;5052635;28;20807;-65
2021/01/06 03:19:15;;;;;;;20.67;12.43;;;4.10;99.90;;;;;;5053049;28;20375;-65
2021/01/06 03:21:44;;;;;;;24.13;12.30;;;4.00;99.90;;;;;;5053717;28;20187;-65
2021/01/06 03:24:11;;;;;;;19.80;12.00;;;4.00;99.90;;;;;;5054264;28;20258;-65
2021/01/06 03:26:39;;;;;;;23.37;14.27;;;4.00;99.90;;;;;;5053578;28;20183;-65
2021/01/06 03:29:05;;;;;;;22.27;12.47;;;4.00;99.90;;;;;;5054002;28;20232;-65
2021/01/06 03:31:43;;;;;;;20.67;12.27;;;4.10;99.90;;;;;;5053234;28;20209;-65
2021/01/06 03:34:19;;;;;;;24.53;13.53;;;4.10;99.90;;;;;;5053637;28;20705;-64
2021/01/06 03:37:01;;;;;;;22.93;13.10;;;4.10;99.90;;;;;;5053881;28;20174;-64
2021/01/06 03:39:34;;;;;;;22.10;12.07;;;4.20;99.90;;;;;;5053458;28;20481;-64
2021/01/06 03:42:00;;;;;;;21.00;12.60;;;4.20;99.90;;;;;;5053433;28;20270;-64
2021/01/06 03:44:27;;;;;;;17.60;11.60;;;4.30;99.90;;;;;;5053394;28;20175;-64
2021/01/06 03:47:01;;;;;;;22.03;11.67;;;4.20;99.90;;;;;;5052814;28;20221;-64
2021/01/06 03:49:48;;;;;;;20.57;11.33;;;4.20;99.90;;;;;;5053355;28;20190;-65
2021/01/06 03:52:42;;;;;;;22.40;11.80;;;4.20;99.90;;;;;;5052995;28;20206;-65
2021/01/06 03:55:08;;;;;;;21.00;12.80;;;4.20;99.90;;;;;;5053250;28;20304;-64
2021/01/06 03:57:34;;;;;;;23.73;12.47;;;4.20;99.90;;;;;;5053341;28;20203;-65
2021/01/06 04:00:03;;;;;;;24.73;12.40;;;4.20;99.90;;;;;;5052877;28;20644;-65
2021/01/06 04:02:46;;;;;;;21.00;12.17;;;4.10;99.90;;;;;;5053040;28;20190;-65
2021/01/06 04:05:16;;;;;;;25.17;13.10;;;4.10;99.90;;;;;;5052998;28;20205;-65
2021/01/06 04:07:44;;;;;;;20.27;12.23;;;4.00;99.90;;;;;;5052321;28;20183;-65
2021/01/06 04:10:18;;;;;;;23.17;12.70;;;4.10;99.90;;;;;;5052712;28;20250;-64
2021/01/06 04:12:43;;;;;;;24.37;13.30;;;4.10;99.90;;;;;;5053182;28;20182;-64
2021/01/06 04:15:12;;;;;;;23.77;13.93;;;4.10;99.90;;;;;;5052839;28;20329;-64
2021/01/06 04:17:41;;;;;;;25.93;14.33;;;4.10;99.90;;;;;;5052989;28;20162;-64
2021/01/06 04:20:32;;;;;;;24.20;13.40;;;4.10;99.90;;;;;;5052508;28;20186;-64
2021/01/06 04:23:00;;;;;;;22.07;12.73;;;4.10;99.90;;;;;;5047068;28;20232;-64
2021/01/06 04:25:34;;;;;;;27.90;14.97;;;4.10;99.90;;;;;;5052579;28;20516;-64
2021/01/06 04:28:07;;;;;;;26.83;15.20;;;4.10;99.90;;;;;;5052574;28;20179;-65
2021/01/06 04:30:53;;;;;;;25.63;13.37;;;4.00;99.90;;;;;;5052057;28;20178;-65
2021/01/06 04:33:23;;;;;;;25.53;14.00;;;4.10;99.90;;;;;;5052531;28;20202;-65
2021/01/06 04:35:50;;;;;;;24.47;13.87;;;4.10;99.90;;;;;;5052581;28;20737;-65
2021/01/06 04:38:21;;;;;;;25.60;14.70;;;4.10;99.90;;;;;;5052592;28;20212;-65
2021/01/06 04:40:50;;;;;;;24.77;13.83;;;4.10;99.90;;;;;;5052103;28;20183;-64
2021/01/06 04:43:41;;;;;;;23.93;13.43;;;4.10;99.90;;;;;;5051655;28;20191;-65
2021/01/06 04:46:25;;;;;;;22.93;12.70;;;4.20;99.90;;;;;;5032810;28;20200;-65
2021/01/06 04:49:15;;;;;;;24.37;13.53;;;4.20;99.90;;;;;;5040102;28;20221;-64
2021/01/06 04:51:52;;;;;;;22.97;13.07;;;4.30;99.90;;;;;;5052490;28;20285;-64
2021/01/06 04:54:32;;;;;;;24.87;13.73;;;4.20;99.90;;;;;;5052227;28;20323;-65
2021/01/06 04:57:24;;;;;;;25.10;14.07;;;4.30;99.90;;;;;;5052451;28;20188;-65
2021/01/06 05:00:07;;;;;;;23.63;12.20;;;4.30;99.90;;;;;;5032453;28;20237;-65
2021/01/06 05:03:18;;;;;;;21.60;12.57;;;4.20;99.90;;;;;;5032784;28;20378;-65
2021/01/06 05:06:02;;;;;;;23.67;13.80;;;4.10;99.90;;;;;;5052285;28;20174;-65
2021/01/06 05:08:41;;;;;;;17.80;11.07;;;4.10;99.90;;;;;;5051671;28;20213;-65
2021/01/06 05:11:31;;;;;;;21.93;12.00;;;4.10;99.90;;;;;;5052052;28;20186;-65
2021/01/06 05:14:05;;;;;;;19.70;11.47;;;4.10;99.90;;;;;;5051512;28;20607;-65
2021/01/06 05:16:34;;;;;;;18.93;11.57;;;4.00;99.90;;;;;;5051965;28;20174;-65
2021/01/06 05:19:01;;;;;;;20.80;11.77;;;4.00;99.90;;;;;;5051735;28;20179;-65
2021/01/06 05:21:28;;;;;;;18.17;11.20;;;4.00;99.90;;;;;;5051179;28;20182;-65
2021/01/06 05:24:08;;;;;;;20.63;12.17;;;3.90;99.90;;;;;;5052224;28;20191;-65
2021/01/06 05:26:34;;;;;;;19.90;11.87;;;3.90;99.90;;;;;;5051222;28;20711;-65
2021/01/06 05:29:01;;;;;;;19.87;10.83;;;3.90;99.90;;;;;;5051706;28;20269;-65
2021/01/06 05:31:27;;;;;;;19.07;11.90;;;3.90;99.90;;;;;;5050917;28;20178;-64
2021/01/06 05:33:52;;;;;;;19.17;11.50;;;3.90;99.90;;;;;;5051726;28;20511;-64
2021/01/06 05:36:29;;;;;;;20.30;12.50;;;3.90;99.90;;;;;;5051314;28;20556;-64
2021/01/06 05:38:56;;;;;;;18.33;11.30;;;3.90;99.90;;;;;;5051180;28;20194;-64
2021/01/06 05:41:21;;;;;;;22.43;12.00;;;3.80;99.90;;;;;;5050965;28;20178;-64
2021/01/06 05:43:52;;;;;;;21.07;11.60;;;3.90;99.90;;;;;;5051625;28;20205;-65
2021/01/06 05:46:28;;;;;;;19.40;12.53;;;3.80;99.90;;;;;;5051245;28;20186;-65
2021/01/06 05:49:17;;;;;;;19.87;11.77;;;3.90;99.90;;;;;;5051131;28;20202;-65
2021/01/06 05:51:52;;;;;;;22.27;12.13;;;3.80;99.90;;;;;;5051164;28;20285;-65
2021/01/06 05:54:42;;;;;;;19.10;11.47;;;3.80;99.90;;;;;;5051081;28;20192;-65
2021/01/06 05:57:12;;;;;;;21.00;11.80;;;3.90;99.90;;;;;;5051467;28;20222;-65
2021/01/06 05:59:46;;;;;;;20.10;11.37;;;3.90;99.90;;;;;;5051420;28;20183;-65
2021/01/06 06:02:30;;;;;;;16.27;10.57;;;3.90;99.90;;;;;;5050794;28;20541;-65
2021/01/06 06:05:33;;;;;;;18.77;11.87;;;4.00;99.90;;;;;;5051205;28;20183;-65
2021/01/06 06:08:08;;;;;;;18.93;11.47;;;4.00;99.90;;;;;;5050521;28;20174;-65
2021/01/06 06:10:53;;;;;;;18.50;11.43;;;3.90;99.90;;;;;;5050497;28;20186;-65
2021/01/06 06:13:55;;;;;;;22.47;12.17;;;3.90;99.90;;;;;;5051106;28;20230;-65
2021/01/06 06:16:30;;;;;;;22.27;13.43;;;3.90;99.90;;;;;;5031408;28;20222;-65
2021/01/06 06:19:18;;;;;;;19.53;11.73;;;3.80;99.90;;;;;;5050671;28;20177;-65
2021/01/06 06:22:02;;;;;;;19.87;12.33;;;3.70;99.90;;;;;;5050768;28;20222;-65
2021/01/06 06:24:30;;;;;;;17.50;9.80;;;3.70;99.90;;;;;;5051073;28;20213;-65
2021/01/06 06:27:17;;;;;;;22.63;13.83;;;3.60;99.90;;;;;;5050805;28;20183;-65
2021/01/06 06:30:06;;;;;;;17.40;11.70;;;3.60;99.90;;;;;;5050889;28;20547;-65
2021/01/06 06:32:32;;;;;;;22.30;12.33;;;3.60;99.90;;;;;;5050801;28;20227;-65
2021/01/06 06:35:19;;;;;;;24.17;13.80;;;3.60;99.90;;;;;;5050787;28;20225;-65
2021/01/06 06:37:49;;;;;;;23.13;13.53;;;3.50;99.90;;;;;;5051238;28;20174;-65
2021/01/06 06:40:15;;;;;;;24.50;13.40;;;3.50;99.90;;;;;;5050396;28;20178;-65
2021/01/06 06:42:56;;;;;;;21.00;13.40;;;3.50;99.90;;;;;;5050824;28;20604;-65
2021/01/06 06:45:51;;;;;;;23.33;12.47;;;3.50;99.90;;;;;;5050569;28;20254;-64
2021/01/06 06:48:39;;;;;;;25.57;13.67;;;3.40;99.90;;;;;;5050683;28;20201;-65
2021/01/06 06:51:17;;;;;;;21.20;12.40;;;3.40;99.90;;;;;;5052357;28;20493;-65
2021/01/06 06:53:56;;;;;;;23.83;14.07;;;3.40;99.90;;;;;;5054333;28;20271;-65
2021/01/06 06:56:24;;;;;;;22.23;13.30;;;3.30;99.90;;;;;;5054493;28;20676;-65
2021/01/06 06:58:58;;;;;;;26.97;14.77;;;3.30;99.90;;;;;;5054093;28;20186;-65
2021/01/06 07:01:35;;;;;;;24.43;14.83;;;3.30;99.90;;;;;;5054066;28;20171;-65
2021/01/06 07:04:04;;;;;;;28.63;14.87;;;3.30;99.90;;;;;;5054555;28;20577;-64
2021/01/06 07:06:31;;;;;;;25.90;14.77;;;3.30;99.90;;;;;;5054273;28;20240;-65
2021/01/06 07:09:00;;;;;;;25.83;14.33;;;3.20;99.90;;;;;;5053277;28;20523;-65
2021/01/06 07:11:49;;;;;;;20.97;12.80;;;3.10;99.90;;;;;;5053959;28;20537;-65
2021/01/06 07:14:47;;;;;;;27.83;14.47;;;3.10;99.90;;;;;;5053484;28;20195;-64
2021/01/06 07:17:26;;;;;;;23.50;14.30;;;3.00;99.90;;;;;;5048580;28;20640;-64
2021/01/06 07:20:03;;;;;;;23.00;13.47;;;2.90;99.90;;;;;;5053968;28;20530;-64
2021/01/06 07:22:40;;;;;;;21.43;13.83;;;2.90;99.90;;;;;;5052801;28;20198;-64
2021/01/06 07:25:18;;;;;;;27.23;14.50;;;2.80;99.90;;;;;;5053887;28;20273;-64
2021/01/06 07:27:45;;;;;;;25.30;13.43;;;2.80;99.90;;;;;;5054254;28;20214;-64
2021/01/06 07:30:25;;;;;;;23.63;13.83;;;2.70;99.90;;;;;;5051622;28;20578;-65
2021/01/06 07:32:51;;;;;;;20.40;12.83;;;2.70;99.90;;;;;;5053747;28;20197;-64
2021/01/06 07:35:24;;;;;;;19.60;11.63;;;2.60;99.90;;;;;;5053302;28;20210;-65
2021/01/06 07:38:06;;;;;;;23.53;14.60;;;2.60;99.90;;;;;;5053784;28;20653;-65
2021/01/06 07:40:38;;;;;;;23.30;13.37;;;2.60;99.90;;;;;;5033344;28;20652;-65
2021/01/06 07:43:06;;;;;;;26.00;14.97;;;2.60;99.90;;;;;;5052868;28;20210;-65
2021/01/06 07:45:39;;;;;;;31.17;15.57;;;2.60;99.90;;;;;;5053418;28;20178;-66
2021/01/06 07:48:23;;;;;;;22.03;13.27;;;2.50;99.90;;;;;;5053659;28;20182;-65
2021/01/06 07:51:33;;;;;;;25.93;15.07;;;2.50;99.90;;;;;;5052293;28;20657;-66
2021/01/06 07:54:14;;;;;;;27.03;13.73;;;2.50;99.90;;;;;;5032624;28;20225;-64
2021/01/06 07:56:39;;;;;;;26.03;14.43;;;2.50;99.90;;;;;;5040589;28;20257;-66
2021/01/06 07:59:18;;;;;;;26.73;14.57;;;2.50;99.90;;;;;;5054594;28;20217;-64
2021/01/06 08:01:53;;;;;;;24.03;14.10;;;2.50;99.90;;;;;;5053231;28;20539;-66
2021/01/06 08:04:19;;;;;;;27.23;15.90;;;2.60;99.90;;;;;;5052959;28;20652;-65
2021/01/06 08:06:58;;;;;;;25.67;15.30;;;2.60;99.90;;;;;;5053127;28;20210;-66
2021/01/06 08:09:29;;;;;;;30.47;16.33;;;2.60;99.90;;;;;;5050681;28;20552;-66
2021/01/06 08:11:56;;;;;;;29.13;15.40;;;2.60;99.90;;;;;;5052081;28;20679;-66
2021/01/06 08:14:31;;;;;;;28.13;15.53;;;2.70;99.90;;;;;;5052639;28;20245;-65
2021/01/06 08:17:04;;;;;;;36.80;17.50;;;2.70;99.90;;;;;;5053339;28;20183;-66
2021/01/06 08:19:34;;;;;;;31.23;17.63;;;2.80;99.90;;;;;;5051335;28;20178;-65
2021/01/06 08:22:10;;;;;;;30.50;17.70;;;2.90;99.90;;;;;;5053059;28;20187;-66
2021/01/06 08:25:06;;;;;;;33.50;18.10;;;3.00;99.90;;;;;;5052472;28;20636;-65
2021/01/06 08:27:36;;;;;;;35.27;17.17;;;3.00;99.90;;;;;;5052237;28;20252;-65
2021/01/06 08:30:10;;;;;;;31.03;16.67;;;3.10;99.90;;;;;;5052457;28;20175;-66
2021/01/06 08:32:36;;;;;;;28.10;15.83;;;3.10;99.90;;;;;;5052969;28;20198;-65
2021/01/06 08:35:07;;;;;;;34.73;17.07;;;3.10;99.90;;;;;;5052617;28;20636;-66
2021/01/06 08:37:36;;;;;;;30.57;16.20;;;3.10;99.90;;;;;;5052981;28;20167;-65
2021/01/06 08:40:07;;;;;;;30.67;17.03;;;3.20;99.90;;;;;;5054607;28;20178;-66
2021/01/06 08:42:47;;;;;;;31.07;17.07;;;3.10;99.90;;;;;;5054510;28;20190;-65
2021/01/06 08:45:21;;;;;;;27.50;16.23;;;3.10;99.90;;;;;;5052816;28;20167;-66
2021/01/06 08:47:46;;;;;;;29.50;16.17;;;3.10;99.90;;;;;;5052599;28;20194;-66
2021/01/06 08:50:15;;;;;;;32.83;15.97;;;3.10;99.90;;;;;;5051097;28;20711;-66
2021/01/06 08:52:48;;;;;;;28.23;16.00;;;3.10;99.90;;;;;;5051995;28;20959;-66
2021/01/06 08:55:38;;;;;;;28.80;14.97;;;3.10;99.90;;;;;;5049536;28;20209;-65
2021/01/06 08:58:12;;;;;;;29.33;17.73;;;3.10;99.90;;;;;;5052140;28;20568;-65
2021/01/06 09:00:40;;;;;;;29.40;16.77;;;3.20;99.90;;;;;;5051984;28;20251;-66
2021/01/06 09:03:19;;;;;;;29.67;17.30;;;3.20;99.90;;;;;;5052184;28;20190;-65
2021/01/06 09:05:53;;;;;;;25.70;15.97;;;3.30;99.90;;;;;;5052806;28;20182;-66
2021/01/06 09:08:25;;;;;;;29.87;17.17;;;3.30;99.90;;;;;;5051686;28;20265;-66
2021/01/06 09:11:00;;;;;;;27.77;16.40;;;3.40;99.90;;;;;;5051784;28;20531;-65
2021/01/06 09:13:39;;;;;;;30.83;16.33;;;3.40;99.90;;;;;;5051536;28;20202;-65
2021/01/06 09:16:20;;;;;;;29.80;16.37;;;3.40;99.90;;;;;;5052448;28;20210;-65
2021/01/06 09:18:57;;;;;;;29.23;16.90;;;3.40;99.90;;;;;;5051390;28;20534;-65
2021/01/06 09:21:29;;;;;;;29.03;15.70;;;3.40;99.90;;;;;;5050739;28;20177;-65
2021/01/06 09:24:32;;;;;;;24.80;15.33;;;3.30;99.90;;;;;;5053168;28;20166;-66
2021/01/06 09:27:02;;;;;;;24.43;15.73;;;3.40;99.90;;;;;;5031685;28;20233;-64
2021/01/06 09:29:28;;;;;;;26.97;15.93;;;3.40;99.90;;;;;;5052770;28;20602;-66
2021/01/06 09:32:00;;;;;;;27.27;15.07;;;3.40;99.90;;;;;;5053201;28;20202;-65
2021/01/06 09:34:54;;;;;;;26.10;15.50;;;3.40;99.90;;;;;;5051658;28;20169;-66
2021/01/06 09:37:26;;;;;;;22.47;14.83;;;3.40;99.90;;;;;;5053718;28;20382;-66
2021/01/06 09:39:54;;;;;;;25.50;15.33;;;3.30;99.90;;;;;;5053090;28;20174;-64
2021/01/06 09:42:20;;;;;;;31.67;15.07;;;3.30;99.90;;;;;;5053041;28;20191;-66
2021/01/06 09:44:48;;;;;;;27.37;16.83;;;3.20;99.90;;;;;;5052508;28;20312;-64
2021/01/06 09:47:37;;;;;;;26.63;16.30;;;3.20;99.90;;;;;;5051570;28;20174;-66
2021/01/06 09:50:27;;;;;;;25.70;15.53;;;3.20;99.90;;;;;;5042919;28;20549;-66
2021/01/06 09:52:54;;;;;;;31.03;16.83;;;3.20;99.90;;;;;;5045652;28;20234;-66
2021/01/06 09:55:27;;;;;;;24.30;15.63;;;3.20;99.90;;;;;;5051758;28;20209;-66
2021/01/06 09:58:19;;;;;;;26.30;16.17;;;3.20;99.90;;;;;;5051513;28;20215;-66
2021/01/06 10:00:51;;;;;;;27.93;16.50;;;3.20;99.90;;;;;;5044360;28;20286;-66
2021/01/06 10:03:17;;;;;;;30.70;17.33;;;3.20;99.90;;;;;;5051081;28;20182;-65
2021/01/06 10:06:03;;;;;;;31.37;16.93;;;3.20;99.90;;;;;;5051170;28;20201;-65
2021/01/06 10:08:46;;;;;;;30.77;16.43;;;3.20;99.90;;;;;;5051022;28;20182;-65
2021/01/06 10:11:30;;;;;;;28.50;16.80;;;3.30;99.90;;;;;;5049849;28;20170;-65
2021/01/06 10:14:17;;;;;;;30.90;15.90;;;3.40;99.90;;;;;;5031663;28;20255;-65
2021/01/06 10:16:53;;;;;;;30.47;17.10;;;3.40;99.90;;;;;;5032771;28;20180;-64
2021/01/06 10:19:39;;;;;;;32.73;18.27;;;3.40;99.90;;;;;;5051148;28;20535;-65
2021/01/06 10:22:25;;;;;;;28.63;17.03;;;3.40;99.90;;;;;;5050638;28;20199;-65
2021/01/06 10:25:05;;;;;;;26.40;15.83;;;3.50;99.90;;;;;;5051015;28;20175;-65
2021/01/06 10:27:53;;;;;;;27.60;16.70;;;3.50;99.90;;;;;;5053896;28;20191;-65
2021/01/06 10:30:20;;;;;;;22.70;14.77;;;3.70;99.90;;;;;;5054729;28;20178;-64
2021/01/06 10:33:04;;;;;;;27.87;16.73;;;3.70;99.90;;;;;;5054511;28;20285;-64
2021/01/06 10:35:38;;;;;;;25.57;15.67;;;3.80;99.90;;;;;;5054919;28;20637;-65
2021/01/06 10:38:27;;;;;;;27.37;16.47;;;3.90;99.90;;;;;;5054674;28;20175;-65
2021/01/06 10:41:12;;;;;;;24.67;16.00;;;4.10;99.90;;;;;;5054528;28;20309;-65
2021/01/06 10:43:45;;;;;;;26.57;16.43;;;4.20;99.90;;;;;;5054430;28;20235;-65
2021/01/06 10:46:32;;;;;;;23.63;15.77;;;4.30;99.90;;;;;;5054940;28;20695;-65
2021/01/06 10:48:58;;;;;;;22.37;15.23;;;4.50;99.90;;;;;;5054499;28;20529;-65
2021/01/06 10:51:48;;;;;;;24.37;16.23;;;4.50;99.90;;;;;;5054050;28;20217;-64
2021/01/06 10:54:19;;;;;;;24.03;15.33;;;4.50;99.90;;;;;;5091112;22;20264;-63
2021/01/06 10:56:46;;;;;;;23.43;15.40;;;4.60;99.90;;;;;;5076558;28;20186;-62
2021/01/06 10:59:15;;;;;;;21.27;14.77;;;4.60;99.90;;;;;;5074428;28;20163;-63
2021/01/06 11:02:02;;;;;;;21.00;14.00;;;4.50;99.90;;;;;;5074186;28;20253;-63
2021/01/06 11:04:57;;;;;;;19.90;14.03;;;4.50;99.90;;;;;;5054238;28;20294;-63
2021/01/06 11:08:08;;;;;;;21.87;14.27;;;4.50;99.90;;;;;;5058832;28;20185;-62
2021/01/06 11:10:39;;;;;;;21.40;15.30;;;4.50;99.90;;;;;;5073632;28;20549;-62
2021/01/06 11:13:24;;;;;;;23.07;14.07;;;4.50;99.90;;;;;;5073837;28;20198;-64
2021/01/06 11:18:17;;;;;;;39.33;23.97;;;4.60;99.90;;;;;;5109139;27;20538;-65
2021/01/06 11:20:49;;;;;;;38.10;22.93;;;4.60;99.90;;;;;;5108649;28;20658;-64
2021/01/06 11:23:23;;;;;;;29.73;18.70;;;4.50;99.90;;;;;;5109113;28;20184;-65
2021/01/06 11:25:51;;;;;;;32.93;20.47;;;4.50;99.90;;;;;;5099437;28;20593;-65
2021/01/06 11:28:50;;;;;;;36.90;21.40;;;4.50;99.90;;;;;;5087344;28;20189;-64
2021/01/06 11:31:19;;;;;;;54.73;28.37;;;4.50;99.90;;;;;;5100964;28;20268;-65
2021/01/06 11:33:46;;;;;;;51.23;26.13;;;4.60;99.90;;;;;;5108736;28;20220;-65
2021/01/06 11:36:38;;;;;;;31.67;21.17;;;4.50;99.90;;;;;;5098016;28;20224;-69
2021/01/06 11:39:07;;;;;;;25.47;18.70;;;4.40;99.90;;;;;;5087840;28;20216;-65
2021/01/06 11:41:32;;;;;;;27.30;18.93;;;4.40;99.90;;;;;;5101010;28;20177;-65
2021/01/06 11:44:16;;;;;;;27.57;18.67;;;4.30;99.90;;;;;;5108824;28;20684;-65
2021/01/06 11:46:51;;;;;;;30.20;19.07;;;4.20;99.90;;;;;;5094592;28;20176;-65
2021/01/06 11:49:37;;;;;;;34.23;20.40;;;4.10;99.90;;;;;;5100471;28;20191;-65
2021/01/06 11:52:42;;;;;;;34.23;23.03;;;4.10;99.90;;;;;;5108898;28;20175;-67
2021/01/06 11:55:13;;;;;;;31.67;20.43;;;4.00;99.90;;;;;;5086855;28;20904;-67
2021/01/06 11:57:44;;;;;;;33.00;22.40;;;3.90;99.90;;;;;;5088816;28;20201;-67
2021/01/06 12:00:28;;;;;;;37.13;22.87;;;4.00;99.90;;;;;;5106860;28;20196;-67
2021/01/06 12:02:57;;;;;;;33.93;21.27;;;4.00;99.90;;;;;;5108880;28;20200;-65
2021/01/06 12:05:27;;;;;;;38.07;23.03;;;3.90;99.90;;;;;;5088752;28;20185;-67
2021/01/06 12:08:18;;;;;;;36.60;22.87;;;4.00;99.90;;;;;;5089904;28;20178;-67
2021/01/06 12:10:44;;;;;;;37.40;22.23;;;4.10;99.90;;;;;;5089477;28;20173;-64
2021/01/06 12:13:21;;;;;;;30.73;20.17;;;4.20;99.90;;;;;;5089562;28;20674;-65
2021/01/06 12:16:05;;;;;;;34.63;22.80;;;4.10;99.90;;;;;;5109509;28;20236;-66
2021/01/06 12:18:59;;;;;;;35.37;21.33;;;4.10;99.90;;;;;;5088466;28;20173;-64
2021/01/06 12:21:36;;;;;;;36.20;23.70;;;4.10;99.90;;;;;;5087983;28;20177;-64
2021/01/06 12:24:30;;;;;;;36.77;22.47;;;4.10;99.90;;;;;;5091246;28;20224;-65
2021/01/06 12:27:22;;;;;;;37.27;24.63;;;4.10;99.90;;;;;;5108833;28;20177;-65
2021/01/06 12:30:16;;;;;;;35.20;22.67;;;4.10;99.90;;;;;;5086067;28;20232;-65
2021/01/06 12:33:03;;;;;;;36.57;22.73;;;4.20;99.90;;;;;;5073826;28;20268;-65
2021/01/06 12:35:38;;;;;;;33.90;21.97;;;4.30;99.90;;;;;;5088635;28;20557;-66
2021/01/06 12:38:20;;;;;;;39.47;24.23;;;4.30;99.90;;;;;;5094405;28;20176;-65
2021/01/06 12:41:08;;;;;;;39.17;23.93;;;4.30;99.90;;;;;;5077965;28;20250;-66
2021/01/06 12:43:49;;;;;;;38.23;22.47;;;4.30;99.90;;;;;;5076117;28;20328;-65
2021/01/06 12:46:29;;;;;;;32.93;22.37;;;4.20;99.90;;;;;;5095337;28;20272;-66
2021/01/06 12:49:10;;;;;;;31.93;20.67;;;4.20;99.90;;;;;;5075786;28;20650;-64
2021/01/06 12:51:39;;;;;;;31.40;19.47;;;4.10;99.90;;;;;;5090942;28;20187;-66
2021/01/06 12:54:18;;;;;;;29.90;19.43;;;4.10;99.90;;;;;;5094838;28;20209;-64
2021/01/06 12:57:01;;;;;;;31.60;19.83;;;4.10;99.90;;;;;;5075369;28;20198;-64
2021/01/06 12:59:28;;;;;;;30.13;19.63;;;4.20;99.90;;;;;;5074977;28;20166;-66
2021/01/06 13:02:06;;;;;;;30.30;19.23;;;4.20;99.90;;;;;;5090459;28;20173;-65
2021/01/06 13:04:35;;;;;;;24.23;16.90;;;4.30;99.90;;;;;;5093168;28;20794;-66
